Time;durP1;ratioP1;P1;durP2;ratioP2;P2;SDS_P1;SDS_P2;PMS_P1;PMS_P2;Temp;Humidity;BMP_temperature;BMP_pressure;BME280_temperature;BME280_humidity;BME280_pressure;Samples;Min_cycle;Max_cycle;Signal;HPM_P1;HPM_P2
2023/09/05 00:03:33;;;;;;;0.93;0.93;;;;;;;;;;10403989;28;20207;-69
2023/09/05 00:08:34;;;;;;;0.88;0.88;;;;;;;;;;10421363;28;20309;-71
2023/09/05 00:13:35;;;;;;;0.90;0.90;;;;;;;;;;10420529;28;20218;-75
2023/09/05 00:18:36;;;;;;;0.80;0.80;;;;;;;;;;10382652;28;20249;-69
2023/09/05 00:23:39;;;;;;;0.90;0.90;;;;;;;;;;10371984;28;20207;-69
2023/09/05 00:28:42;;;;;;;0.77;0.73;;;;;;;;;;10371167;28;20219;-71
2023/09/05 00:33:44;;;;;;;0.70;0.70;;;;;;;;;;10372216;28;20220;-70
2023/09/05 00:38:47;;;;;;;0.90;0.90;;;;;;;;;;10359473;28;20215;-76
2023/09/05 00:43:49;;;;;;;1.08;1.08;;;;;;;;;;10386727;28;20211;-67
2023/09/05 00:48:52;;;;;;;0.73;0.73;;;;;;;;;;10357921;28;20231;-70
2023/09/05 00:53:53;;;;;;;0.90;0.90;;;;;;;;;;10370607;28;20277;-72
2023/09/05 00:58:54;;;;;;;1.00;1.00;;;;;;;;;;10386957;28;20272;-70
2023/09/05 01:03:57;;;;;;;1.13;1.13;;;;;;;;;;10364989;28;20207;-71
2023/09/05 01:09:04;;;;;;;1.13;1.13;;;;;;;;;;10383509;28;20223;-69
2023/09/05 01:14:05;;;;;;;2.60;1.13;;;;;;;;;;10370191;28;20242;-74
2023/09/05 01:19:06;;;;;;;1.88;0.88;;;;;;;;;;10427153;28;20712;-67
2023/09/05 01:24:13;;;;;;;1.20;1.10;;;;;;;;;;10426558;28;20230;-67
2023/09/05 01:29:15;;;;;;;1.17;1.17;;;;;;;;;;10425914;28;20664;-69
2023/09/05 01:34:16;;;;;;;0.95;0.95;;;;;;;;;;10427443;28;20708;-71
2023/09/05 01:39:17;;;;;;;1.90;1.75;;;;;;;;;;10423651;28;20207;-70
2023/09/05 01:44:19;;;;;;;1.50;1.40;;;;;;;;;;10424464;28;20214;-69
2023/09/05 01:49:21;;;;;;;1.33;1.33;;;;;;;;;;10413781;28;20226;-72
2023/09/05 01:54:24;;;;;;;1.20;1.20;;;;;;;;;;10426481;28;20737;-70
2023/09/05 01:59:25;;;;;;;1.50;1.40;;;;;;;;;;10427036;28;20219;-74
2023/09/05 02:04:26;;;;;;;1.30;1.20;;;;;;;;;;10427271;28;20238;-67
2023/09/05 02:09:28;;;;;;;2.08;1.77;;;;;;;;;;10427134;28;20289;-72
2023/09/05 02:14:29;;;;;;;2.25;1.40;;;;;;;;;;10433620;28;20233;-69
2023/09/05 02:19:30;;;;;;;1.77;1.63;;;;;;;;;;10404585;28;20315;-73
2023/09/05 02:24:32;;;;;;;1.15;1.05;;;;;;;;;;10392148;28;20294;-73
2023/09/05 02:29:33;;;;;;;2.28;1.77;;;;;;;;;;10425726;28;20281;-67
2023/09/05 02:34:35;;;;;;;1.20;1.20;;;;;;;;;;10405504;28;20269;-73
2023/09/05 02:39:36;;;;;;;1.00;1.00;;;;;;;;;;10395445;28;20218;-72
2023/09/05 02:44:37;;;;;;;2.63;1.10;;;;;;;;;;10407449;28;20208;-73
2023/09/05 02:49:38;;;;;;;1.63;1.08;;;;;;;;;;10423592;28;20230;-69
2023/09/05 02:54:39;;;;;;;1.63;1.15;;;;;;;;;;10396149;28;20223;-70
2023/09/05 02:59:40;;;;;;;1.60;1.50;;;;;;;;;;10423800;28;20215;-69
2023/09/05 03:04:41;;;;;;;1.20;1.20;;;;;;;;;;10421254;28;20222;-69
2023/09/05 03:09:43;;;;;;;1.48;1.40;;;;;;;;;;10421380;28;20211;-71
2023/09/05 03:14:47;;;;;;;1.25;1.23;;;;;;;;;;10397003;28;20781;-73
2023/09/05 03:19:48;;;;;;;1.73;1.63;;;;;;;;;;10407300;28;20211;-67
2023/09/05 03:24:50;;;;;;;1.70;1.60;;;;;;;;;;10397188;28;20315;-70
2023/09/05 03:29:51;;;;;;;1.55;1.48;;;;;;;;;;10405616;28;20599;-70
2023/09/05 03:34:53;;;;;;;2.25;1.48;;;;;;;;;;10402376;28;20250;-75
2023/09/05 03:39:55;;;;;;;1.25;1.25;;;;;;;;;;10405116;28;20245;-69
2023/09/05 03:44:56;;;;;;;1.20;1.20;;;;;;;;;;10422839;28;20211;-70
2023/09/05 03:49:58;;;;;;;2.97;0.93;;;;;;;;;;10393505;28;20630;-68
2023/09/05 03:54:59;;;;;;;1.52;1.27;;;;;;;;;;10402195;28;20222;-71
2023/09/05 04:00:00;;;;;;;1.77;1.33;;;;;;;;;;10411465;28;20264;-71
2023/09/05 04:05:01;;;;;;;1.67;1.45;;;;;;;;;;10419458;28;20712;-71
2023/09/05 04:10:02;;;;;;;1.58;1.38;;;;;;;;;;10414765;28;20316;-70
2023/09/05 04:15:03;;;;;;;1.48;1.48;;;;;;;;;;10418814;28;20235;-68
2023/09/05 04:20:08;;;;;;;1.40;1.30;;;;;;;;;;10390017;28;20196;-67
2023/09/05 04:25:10;;;;;;;0.93;0.93;;;;;;;;;;10369709;28;20243;-73
2023/09/05 04:30:12;;;;;;;3.45;2.15;;;;;;;;;;10377498;28;20247;-75
2023/09/05 04:35:14;;;;;;;2.63;2.47;;;;;;;;;;10385592;28;20758;-74
2023/09/05 04:40:16;;;;;;;3.15;2.05;;;;;;;;;;10354523;28;20784;-73
2023/09/05 04:45:17;;;;;;;2.05;1.95;;;;;;;;;;10370959;28;20189;-73
2023/09/05 04:50:18;;;;;;;2.15;2.05;;;;;;;;;;10365093;28;20223;-69
2023/09/05 04:55:19;;;;;;;2.78;2.67;;;;;;;;;;10369375;28;20235;-72
2023/09/05 05:00:23;;;;;;;2.50;2.33;;;;;;;;;;10369485;28;20219;-69
2023/09/05 05:05:24;;;;;;;7.10;3.15;;;;;;;;;;10385514;28;20689;-69
2023/09/05 05:10:25;;;;;;;2.15;2.05;;;;;;;;;;10369092;28;20235;-69
2023/09/05 05:15:26;;;;;;;2.40;2.28;;;;;;;;;;10399990;28;20712;-70
2023/09/05 05:20:27;;;;;;;3.00;2.80;;;;;;;;;;10429506;28;20229;-72
2023/09/05 05:25:28;;;;;;;3.25;2.42;;;;;;;;;;10412130;28;20294;-68
2023/09/05 05:30:32;;;;;;;3.70;2.33;;;;;;;;;;10414729;28;20313;-69
2023/09/05 05:35:34;;;;;;;4.82;2.10;;;;;;;;;;10428357;28;20233;-68
2023/09/05 05:40:35;;;;;;;3.05;2.85;;;;;;;;;;10426429;28;20429;-73
2023/09/05 05:45:36;;;;;;;2.83;2.25;;;;;;;;;;10428168;28;20310;-73
2023/09/05 05:50:37;;;;;;;2.63;2.42;;;;;;;;;;10443806;28;20263;-73
2023/09/05 05:55:38;;;;;;;4.13;2.33;;;;;;;;;;10410379;28;20241;-73
2023/09/05 06:00:44;;;;;;;5.00;2.85;;;;;;;;;;10423549;28;20672;-73
2023/09/05 06:05:45;;;;;;;2.80;2.25;;;;;;;;;;10423082;28;20226;-69
2023/09/05 06:10:46;;;;;;;3.17;2.65;;;;;;;;;;10425149;28;20226;-73
2023/09/05 06:15:48;;;;;;;3.40;3.10;;;;;;;;;;10401139;28;20232;-69
2023/09/05 06:20:49;;;;;;;2.88;2.75;;;;;;;;;;10384555;28;20269;-72
2023/09/05 06:25:50;;;;;;;5.38;2.60;;;;;;;;;;10364578;28;20780;-67
2023/09/05 06:30:51;;;;;;;1.67;1.58;;;;;;;;;;10356810;28;20243;-71
2023/09/05 06:35:52;;;;;;;4.30;2.45;;;;;;;;;;10366060;28;20219;-72
2023/09/05 06:40:53;;;;;;;1.80;1.80;;;;;;;;;;10368046;28;20721;-73
2023/09/05 06:46:01;;;;;;;2.25;2.05;;;;;;;;;;10366865;28;20683;-70
2023/09/05 06:51:02;;;;;;;1.73;1.63;;;;;;;;;;10366614;28;20274;-71
2023/09/05 06:56:04;;;;;;;2.25;2.15;;;;;;;;;;10385290;28;20255;-70
2023/09/05 07:01:05;;;;;;;1.75;1.55;;;;;;;;;;10381715;28;20207;-70
2023/09/05 07:06:07;;;;;;;1.88;1.70;;;;;;;;;;10370391;28;20390;-74
2023/09/05 07:11:08;;;;;;;1.95;1.20;;;;;;;;;;10369034;28;20257;-71
2023/09/05 07:16:09;;;;;;;1.35;1.35;;;;;;;;;;10387630;28;20346;-74
2023/09/05 07:21:10;;;;;;;1.13;1.13;;;;;;;;;;10415122;28;20536;-71
2023/09/05 07:26:11;;;;;;;1.02;1.02;;;;;;;;;;10425459;28;20218;-70
2023/09/05 07:31:14;;;;;;;1.33;1.33;;;;;;;;;;10424371;28;20731;-69
2023/09/05 07:36:15;;;;;;;0.95;0.95;;;;;;;;;;10408023;28;20820;-70
2023/09/05 07:41:16;;;;;;;1.60;1.20;;;;;;;;;;10408626;28;20842;-69
2023/09/05 07:46:18;;;;;;;1.15;1.15;;;;;;;;;;10437734;28;20218;-73
2023/09/05 07:51:22;;;;;;;2.42;1.00;;;;;;;;;;10419835;28;20246;-71
2023/09/05 07:56:23;;;;;;;1.27;0.65;;;;;;;;;;10414983;28;20225;-69
2023/09/05 08:01:25;;;;;;;1.95;0.98;;;;;;;;;;10427494;28;20240;-73
2023/09/05 08:06:28;;;;;;;0.68;0.68;;;;;;;;;;10425010;28;20272;-74
2023/09/05 08:11:29;;;;;;;0.90;0.65;;;;;;;;;;10415407;28;20257;-68
2023/09/05 08:16:31;;;;;;;1.30;0.80;;;;;;;;;;10423975;28;20234;-73
2023/09/05 08:21:33;;;;;;;0.70;0.70;;;;;;;;;;10421800;28;20215;-76
2023/09/05 08:26:34;;;;;;;0.80;0.80;;;;;;;;;;10419891;28;20243;-71
2023/09/05 08:31:35;;;;;;;0.70;0.70;;;;;;;;;;10425082;28;20264;-72
2023/09/05 08:36:36;;;;;;;0.95;0.70;;;;;;;;;;10408305;28;20490;-71
2023/09/05 08:41:39;;;;;;;0.50;0.50;;;;;;;;;;10409822;28;20629;-72
2023/09/05 08:46:41;;;;;;;0.63;0.63;;;;;;;;;;10433454;28;20491;-69
2023/09/05 08:51:43;;;;;;;1.60;0.60;;;;;;;;;;10397552;28;20211;-69
2023/09/05 08:56:44;;;;;;;0.50;0.50;;;;;;;;;;10430432;28;20219;-73
2023/09/05 09:01:45;;;;;;;1.33;0.70;;;;;;;;;;10413507;28;20219;-70
2023/09/05 09:06:53;;;;;;;0.75;0.75;;;;;;;;;;10429003;28;20210;-69
2023/09/05 09:12:01;;;;;;;0.50;0.50;;;;;;;;;;10424608;28;20218;-71
2023/09/05 09:17:02;;;;;;;0.60;0.50;;;;;;;;;;10427202;28;20223;-69
2023/09/05 09:22:05;;;;;;;0.82;0.70;;;;;;;;;;10424693;28;20595;-73
2023/09/05 09:27:06;;;;;;;1.45;0.60;;;;;;;;;;10413628;28;20315;-73
2023/09/05 09:32:07;;;;;;;0.88;0.80;;;;;;;;;;10413658;28;20715;-70
2023/09/05 09:37:09;;;;;;;0.50;0.50;;;;;;;;;;10433612;28;20275;-71
2023/09/05 09:42:11;;;;;;;1.17;0.47;;;;;;;;;;10431283;28;20364;-70
2023/09/05 09:47:12;;;;;;;0.60;0.60;;;;;;;;;;10390233;28;20215;-69
2023/09/05 09:52:15;;;;;;;0.80;0.57;;;;;;;;;;10402251;28;20481;-72
2023/09/05 09:57:22;;;;;;;0.50;0.50;;;;;;;;;;10389685;28;20281;-70
2023/09/05 10:02:25;;;;;;;0.50;0.50;;;;;;;;;;10409847;28;20215;-72
2023/09/05 10:07:27;;;;;;;0.50;0.50;;;;;;;;;;10402258;28;20261;-75
2023/09/05 10:12:29;;;;;;;0.43;0.43;;;;;;;;;;10428309;28;20230;-70
2023/09/05 10:17:30;;;;;;;0.50;0.50;;;;;;;;;;10382834;28;20392;-75
2023/09/05 10:22:32;;;;;;;1.20;0.60;;;;;;;;;;10365665;28;20734;-71
2023/09/05 10:27:34;;;;;;;0.50;0.50;;;;;;;;;;10376212;28;20226;-71
2023/09/05 10:32:35;;;;;;;0.47;0.47;;;;;;;;;;10375107;28;20208;-74
2023/09/05 10:37:43;;;;;;;0.65;0.63;;;;;;;;;;10369182;28;20203;-71
2023/09/05 10:42:51;;;;;;;0.40;0.40;;;;;;;;;;10368819;28;20204;-71
2023/09/05 10:47:54;;;;;;;0.50;0.50;;;;;;;;;;10357425;28;20643;-74
2023/09/05 10:53:13;;;;;;;0.40;0.40;;;;;;;;;;10361052;28;20342;-75
2023/09/05 10:58:33;;;;;;;0.47;0.30;;;;;;;;;;10361724;28;20239;-73
2023/09/05 11:03:36;;;;;;;0.40;0.40;;;;;;;;;;10356400;28;20302;-74
2023/09/05 11:08:37;;;;;;;1.00;0.30;;;;;;;;;;10382293;28;20491;-73
2023/09/05 11:13:49;;;;;;;2.63;0.40;;;;;;;;;;10364466;28;20245;-74
2023/09/05 11:18:56;;;;;;;0.70;0.50;;;;;;;;;;10404361;28;20215;-73
2023/09/05 11:23:57;;;;;;;0.75;0.47;;;;;;;;;;10401421;28;20214;-72
2023/09/05 11:28:58;;;;;;;0.80;0.43;;;;;;;;;;10405521;28;20302;-72
2023/09/05 11:33:59;;;;;;;0.40;0.40;;;;;;;;;;10390248;28;20206;-75
2023/09/05 11:39:00;;;;;;;1.20;0.40;;;;;;;;;;10408378;28;20612;-72
2023/09/05 11:44:01;;;;;;;1.02;0.43;;;;;;;;;;10389283;28;20245;-73
2023/09/05 11:49:03;;;;;;;0.40;0.40;;;;;;;;;;10405109;28;20226;-72
2023/09/05 11:54:04;;;;;;;0.40;0.40;;;;;;;;;;10406700;28;20597;-74
2023/09/05 11:59:05;;;;;;;0.50;0.50;;;;;;;;;;10389824;28;20207;-73
2023/09/05 12:04:06;;;;;;;0.50;0.50;;;;;;;;;;10406679;28;20203;-73
2023/09/05 12:09:09;;;;;;;0.50;0.50;;;;;;;;;;10403126;28;20214;-75
2023/09/05 12:14:11;;;;;;;0.30;0.30;;;;;;;;;;10417675;28;20282;-75
2023/09/05 12:19:12;;;;;;;2.40;0.50;;;;;;;;;;10373983;28;20310;-74
2023/09/05 12:24:17;;;;;;;0.45;0.45;;;;;;;;;;10370446;28;20232;-76
2023/09/05 12:29:21;;;;;;;0.30;0.30;;;;;;;;;;10361791;28;20352;-75
2023/09/05 12:34:22;;;;;;;0.55;0.47;;;;;;;;;;10370293;28;20228;-76
2023/09/05 12:39:23;;;;;;;0.40;0.40;;;;;;;;;;10370552;28;20227;-75
2023/09/05 12:44:28;;;;;;;0.40;0.40;;;;;;;;;;10386956;28;20212;-73
2023/09/05 12:49:32;;;;;;;0.30;0.30;;;;;;;;;;10380961;28;20223;-76
2023/09/05 12:54:33;;;;;;;0.30;0.30;;;;;;;;;;10358864;28;20278;-73
2023/09/05 12:59:35;;;;;;;0.20;0.20;;;;;;;;;;10373042;28;22219;-72
2023/09/05 13:04:37;;;;;;;1.30;0.30;;;;;;;;;;10369834;28;20211;-74
2023/09/05 13:09:38;;;;;;;0.30;0.30;;;;;;;;;;10383493;28;20215;-75
2023/09/05 13:14:39;;;;;;;0.30;0.30;;;;;;;;;;10374313;28;20298;-76
2023/09/05 13:19:43;;;;;;;0.30;0.30;;;;;;;;;;10428763;28;20291;-76
2023/09/05 13:24:45;;;;;;;1.08;0.20;;;;;;;;;;10418193;28;20557;-74
2023/09/05 13:29:46;;;;;;;0.30;0.30;;;;;;;;;;10424588;28;20242;-72
2023/09/05 13:34:47;;;;;;;0.63;0.30;;;;;;;;;;10431468;28;20224;-75
2023/09/05 13:39:48;;;;;;;0.30;0.30;;;;;;;;;;10418197;28;20277;-75
2023/09/05 13:44:49;;;;;;;0.30;0.30;;;;;;;;;;10430608;28;20782;-74
2023/09/05 13:49:50;;;;;;;0.63;0.63;;;;;;;;;;10412133;28;20233;-75
2023/09/05 13:54:52;;;;;;;0.47;0.30;;;;;;;;;;10426746;28;20218;-76
2023/09/05 13:59:53;;;;;;;0.30;0.30;;;;;;;;;;10425390;28;20630;-74
2023/09/05 14:04:54;;;;;;;0.40;0.40;;;;;;;;;;10431076;28;20206;-75
2023/09/05 14:09:56;;;;;;;0.30;0.30;;;;;;;;;;10425063;28;20214;-76
2023/09/05 14:14:57;;;;;;;0.30;0.30;;;;;;;;;;10429529;28;20230;-74
2023/09/05 14:19:58;;;;;;;0.35;0.35;;;;;;;;;;10425999;28;20207;-74
2023/09/05 14:25:00;;;;;;;0.30;0.30;;;;;;;;;;10430812;28;20216;-75
2023/09/05 14:30:01;;;;;;;0.20;0.20;;;;;;;;;;10432299;28;20214;-75
2023/09/05 14:35:02;;;;;;;0.30;0.30;;;;;;;;;;10429702;28;20651;-75
2023/09/05 14:40:04;;;;;;;2.05;0.88;;;;;;;;;;10428465;28;20230;-75
2023/09/05 14:45:06;;;;;;;0.30;0.30;;;;;;;;;;10407859;28;20305;-73
2023/09/05 14:50:08;;;;;;;0.30;0.30;;;;;;;;;;10430954;28;20245;-74
2023/09/05 14:55:11;;;;;;;0.90;0.30;;;;;;;;;;10423645;28;20849;-75
2023/09/05 15:00:12;;;;;;;0.45;0.30;;;;;;;;;;10426611;28;20302;-75
2023/09/05 15:05:14;;;;;;;0.85;0.50;;;;;;;;;;10429908;28;20195;-73
2023/09/05 15:10:15;;;;;;;0.32;0.32;;;;;;;;;;10420446;28;20218;-73
2023/09/05 15:15:16;;;;;;;0.30;0.30;;;;;;;;;;10431781;28;20665;-76
2023/09/05 15:20:17;;;;;;;0.98;0.30;;;;;;;;;;10409640;28;20572;-74
2023/09/05 15:25:19;;;;;;;0.30;0.30;;;;;;;;;;10410491;28;20187;-75
2023/09/05 15:30:20;;;;;;;2.05;0.50;;;;;;;;;;10420033;28;20206;-75
2023/09/05 15:35:21;;;;;;;0.32;0.30;;;;;;;;;;10411751;28;20210;-74
2023/09/05 15:40:22;;;;;;;1.55;0.40;;;;;;;;;;10429873;28;20199;-75
2023/09/05 15:45:23;;;;;;;0.30;0.30;;;;;;;;;;10408029;28;20337;-73
2023/09/05 15:50:24;;;;;;;0.70;0.32;;;;;;;;;;10431950;28;20222;-76
2023/09/05 15:55:25;;;;;;;0.30;0.30;;;;;;;;;;10430116;28;20619;-74
2023/09/05 16:00:27;;;;;;;0.30;0.30;;;;;;;;;;10409435;28;20531;-75
2023/09/05 16:05:28;;;;;;;0.30;0.30;;;;;;;;;;10415237;28;20225;-74
2023/09/05 16:10:29;;;;;;;0.30;0.30;;;;;;;;;;10444729;28;20218;-75
2023/09/05 16:15:30;;;;;;;0.20;0.20;;;;;;;;;;10414534;28;20321;-75
2023/09/05 16:20:31;;;;;;;0.30;0.30;;;;;;;;;;10429008;28;20223;-72
2023/09/05 16:25:44;;;;;;;0.30;0.30;;;;;;;;;;10413938;28;20389;-74
2023/09/05 16:30:45;;;;;;;0.30;0.30;;;;;;;;;;10426554;28;20265;-72
2023/09/05 16:35:46;;;;;;;1.27;0.43;;;;;;;;;;10422759;28;20261;-76
2023/09/05 16:40:47;;;;;;;0.30;0.30;;;;;;;;;;10422554;28;20280;-76
2023/09/05 16:45:49;;;;;;;1.10;0.22;;;;;;;;;;10428140;28;20215;-74
2023/09/05 16:50:50;;;;;;;0.25;0.25;;;;;;;;;;10431500;28;20211;-76
2023/09/05 16:55:51;;;;;;;0.30;0.30;;;;;;;;;;10424517;28;20306;-72
2023/09/05 17:00:52;;;;;;;0.40;0.40;;;;;;;;;;10410036;28;20214;-75
2023/09/05 17:05:53;;;;;;;0.52;0.30;;;;;;;;;;10435197;28;20555;-76
2023/09/05 17:10:54;;;;;;;0.38;0.38;;;;;;;;;;10438457;28;20640;-72
2023/09/05 17:15:56;;;;;;;0.50;0.50;;;;;;;;;;10430564;28;21205;-71
2023/09/05 17:20:57;;;;;;;0.40;0.30;;;;;;;;;;10415263;28;20219;-75
2023/09/05 17:25:58;;;;;;;0.50;0.50;;;;;;;;;;10432532;28;20214;-76
2023/09/05 17:30:59;;;;;;;0.40;0.40;;;;;;;;;;10429259;28;20215;-73
2023/09/05 17:36:02;;;;;;;0.45;0.45;;;;;;;;;;10431621;28;20245;-74
2023/09/05 17:41:07;;;;;;;0.50;0.50;;;;;;;;;;10419763;28;20661;-74
2023/09/05 17:46:08;;;;;;;0.47;0.47;;;;;;;;;;10446780;28;20241;-73
2023/09/05 17:51:11;;;;;;;0.47;0.43;;;;;;;;;;10420114;28;20313;-75
2023/09/05 17:56:14;;;;;;;0.30;0.30;;;;;;;;;;10433704;28;20585;-75
2023/09/05 18:01:17;;;;;;;0.32;0.32;;;;;;;;;;10432831;28;20268;-72
2023/09/05 18:06:18;;;;;;;0.40;0.40;;;;;;;;;;10411277;28;20215;-71
2023/09/05 18:11:19;;;;;;;0.40;0.40;;;;;;;;;;10432355;28;20215;-76
2023/09/05 18:16:20;;;;;;;0.60;0.50;;;;;;;;;;10433678;28;20222;-75
2023/09/05 18:21:21;;;;;;;0.50;0.50;;;;;;;;;;10425324;28;20249;-75
2023/09/05 18:26:22;;;;;;;0.65;0.65;;;;;;;;;;10431928;28;20207;-75
2023/09/05 18:31:24;;;;;;;0.40;0.40;;;;;;;;;;10418639;28;20278;-75
2023/09/05 18:36:25;;;;;;;0.50;0.50;;;;;;;;;;10416761;28;20214;-73
2023/09/05 18:41:26;;;;;;;0.50;0.50;;;;;;;;;;10439919;28;20293;-76
2023/09/05 18:46:27;;;;;;;0.50;0.50;;;;;;;;;;10418022;28;20223;-73
2023/09/05 18:51:35;;;;;;;0.40;0.40;;;;;;;;;;10431744;28;20214;-72
2023/09/05 18:56:37;;;;;;;0.60;0.60;;;;;;;;;;10436878;28;20277;-76
2023/09/05 19:01:38;;;;;;;0.70;0.70;;;;;;;;;;10419521;28;20597;-74
2023/09/05 19:06:39;;;;;;;0.40;0.40;;;;;;;;;;10432215;28;20240;-78
2023/09/05 19:11:42;;;;;;;0.50;0.50;;;;;;;;;;10424149;28;20800;-74
2023/09/05 19:16:43;;;;;;;0.60;0.60;;;;;;;;;;10430793;28;20222;-76
2023/09/05 19:21:44;;;;;;;0.40;0.40;;;;;;;;;;10417723;28;20221;-77
2023/09/05 19:26:46;;;;;;;1.95;0.60;;;;;;;;;;10432283;28;20211;-76
2023/09/05 19:31:47;;;;;;;0.40;0.40;;;;;;;;;;10433851;28;20222;-76
2023/09/05 19:36:48;;;;;;;0.40;0.40;;;;;;;;;;10432387;28;20219;-75
2023/09/05 19:41:49;;;;;;;0.60;0.47;;;;;;;;;;10432092;28;20213;-74
2023/09/05 19:46:50;;;;;;;0.50;0.50;;;;;;;;;;10432597;28;20215;-75
2023/09/05 19:51:51;;;;;;;0.60;0.60;;;;;;;;;;10425542;28;21699;-76
2023/09/05 19:56:52;;;;;;;0.57;0.57;;;;;;;;;;10415271;28;20725;-75
2023/09/05 20:01:53;;;;;;;0.70;0.70;;;;;;;;;;10429858;28;20226;-71
2023/09/05 20:06:55;;;;;;;0.65;0.60;;;;;;;;;;10430762;28;20210;-71
2023/09/05 20:11:56;;;;;;;0.65;0.57;;;;;;;;;;10431310;28;20237;-73
2023/09/05 20:16:57;;;;;;;0.40;0.40;;;;;;;;;;10432147;28;20229;-74
2023/09/05 20:21:59;;;;;;;0.50;0.50;;;;;;;;;;10427871;28;21251;-74
2023/09/05 20:27:00;;;;;;;3.47;0.60;;;;;;;;;;10431261;28;20457;-74
2023/09/05 20:32:01;;;;;;;0.57;0.57;;;;;;;;;;10420775;28;20238;-75
2023/09/05 20:37:02;;;;;;;0.40;0.40;;;;;;;;;;10434276;28;20319;-76
2023/09/05 20:42:03;;;;;;;1.40;0.60;;;;;;;;;;10440463;28;20217;-73
2023/09/05 20:47:04;;;;;;;1.33;0.60;;;;;;;;;;10433192;28;20210;-75
2023/09/05 20:52:06;;;;;;;0.75;0.75;;;;;;;;;;10436328;28;20918;-73
2023/09/05 20:57:07;;;;;;;1.40;0.80;;;;;;;;;;10418694;28;20219;-75
2023/09/05 21:02:08;;;;;;;0.70;0.70;;;;;;;;;;10444040;28;20441;-73
2023/09/05 21:07:09;;;;;;;0.57;0.57;;;;;;;;;;10439551;28;20821;-75
2023/09/05 21:12:10;;;;;;;0.50;0.50;;;;;;;;;;10438587;28;20728;-75
2023/09/05 21:17:11;;;;;;;0.65;0.65;;;;;;;;;;10422753;28;20223;-73
2023/09/05 21:22:13;;;;;;;0.68;0.68;;;;;;;;;;10417932;28;20269;-76
2023/09/05 21:27:14;;;;;;;0.73;0.73;;;;;;;;;;10423072;28;20220;-76
2023/09/05 21:32:15;;;;;;;0.50;0.50;;;;;;;;;;10433597;28;20568;-74
2023/09/05 21:37:16;;;;;;;0.52;0.52;;;;;;;;;;10437047;28;20255;-76
2023/09/05 21:42:17;;;;;;;0.68;0.68;;;;;;;;;;10445422;28;20214;-74
2023/09/05 21:47:18;;;;;;;0.50;0.50;;;;;;;;;;10444061;28;20275;-75
2023/09/05 21:52:20;;;;;;;0.65;0.65;;;;;;;;;;10432948;28;20622;-70
2023/09/05 21:57:21;;;;;;;0.68;0.68;;;;;;;;;;10432518;28;20219;-77
2023/09/05 22:02:23;;;;;;;0.85;0.63;;;;;;;;;;10435015;28;20215;-73
2023/09/05 22:07:24;;;;;;;0.50;0.50;;;;;;;;;;10417597;28;20231;-73
2023/09/05 22:12:25;;;;;;;0.50;0.50;;;;;;;;;;10414141;28;20309;-73
2023/09/05 22:17:26;;;;;;;0.50;0.50;;;;;;;;;;10398608;28;20281;-73
2023/09/05 22:22:27;;;;;;;0.88;0.60;;;;;;;;;;10397536;28;20211;-75
2023/09/05 22:27:29;;;;;;;0.50;0.50;;;;;;;;;;10401779;28;20588;-75
2023/09/05 22:32:30;;;;;;;0.93;0.50;;;;;;;;;;10409583;28;20215;-74
2023/09/05 22:37:31;;;;;;;2.25;0.80;;;;;;;;;;10392155;28;20233;-73
2023/09/05 22:42:34;;;;;;;0.60;0.60;;;;;;;;;;10379339;28;20213;-75
2023/09/05 22:47:36;;;;;;;0.85;0.85;;;;;;;;;;10416154;28;20207;-72
2023/09/05 22:52:38;;;;;;;0.88;0.88;;;;;;;;;;10415417;28;20227;-75
2023/09/05 22:57:41;;;;;;;0.80;0.80;;;;;;;;;;10412584;28;20207;-73
2023/09/05 23:02:43;;;;;;;0.90;0.75;;;;;;;;;;10416283;28;20207;-75
2023/09/05 23:07:44;;;;;;;1.20;1.00;;;;;;;;;;10408426;28;20250;-74
2023/09/05 23:12:45;;;;;;;0.75;0.75;;;;;;;;;;10411878;28;20207;-74
2023/09/05 23:17:46;;;;;;;0.80;0.80;;;;;;;;;;10420110;28;20731;-74
2023/09/05 23:22:47;;;;;;;0.73;0.73;;;;;;;;;;10413436;28;20605;-78
2023/09/05 23:27:50;;;;;;;0.82;0.82;;;;;;;;;;10390916;28;20235;-74
2023/09/05 23:32:51;;;;;;;0.70;0.70;;;;;;;;;;10411959;28;20207;-74
2023/09/05 23:37:54;;;;;;;0.70;0.70;;;;;;;;;;10421367;28;20210;-74
2023/09/05 23:42:55;;;;;;;1.15;1.00;;;;;;;;;;10413328;28;20210;-74
2023/09/05 23:47:59;;;;;;;0.68;0.68;;;;;;;;;;10414248;28;20237;-73
2023/09/05 23:53:00;;;;;;;0.60;0.60;;;;;;;;;;10412405;28;20234;-76
2023/09/05 23:58:01;;;;;;;0.80;0.80;;;;;;;;;;10412899;28;20218;-73
